sensor_id;sensor_type;location;lat;lon;timestamp;P1;durP1;ratioP1;P2;durP2;ratioP2
3433;SDS011;1730;41.932;25.548;2024-01-30T00:01:54;14.33;;;8.63;;
3433;SDS011;1730;41.932;25.548;2024-01-30T00:04:20;10.80;;;8.00;;
3433;SDS011;1730;41.932;25.548;2024-01-30T00:06:45;13.57;;;9.80;;
3433;SDS011;1730;41.932;25.548;2024-01-30T00:09:12;16.33;;;11.30;;
3433;SDS011;1730;41.932;25.548;2024-01-30T00:11:38;18.10;;;12.07;;
3433;SDS011;1730;41.932;25.548;2024-01-30T00:14:04;15.60;;;10.40;;
3433;SDS011;1730;41.932;25.548;2024-01-30T00:16:30;13.47;;;8.93;;
3433;SDS011;1730;41.932;25.548;2024-01-30T00:18:56;11.70;;;8.70;;
3433;SDS011;1730;41.932;25.548;2024-01-30T00:21:22;13.03;;;8.03;;
3433;SDS011;1730;41.932;25.548;2024-01-30T00:23:48;10.47;;;6.80;;
3433;SDS011;1730;41.932;25.548;2024-01-30T00:26:14;11.07;;;7.83;;
3433;SDS011;1730;41.932;25.548;2024-01-30T00:28:42;14.00;;;8.87;;
3433;SDS011;1730;41.932;25.548;2024-01-30T00:31:09;8.00;;;7.13;;
3433;SDS011;1730;41.932;25.548;2024-01-30T00:33:38;12.87;;;8.53;;
3433;SDS011;1730;41.932;25.548;2024-01-30T00:36:05;13.53;;;7.80;;
3433;SDS011;1730;41.932;25.548;2024-01-30T00:38:32;7.90;;;6.87;;
3433;SDS011;1730;41.932;25.548;2024-01-30T00:40:58;10.47;;;8.17;;
3433;SDS011;1730;41.932;25.548;2024-01-30T00:43:23;9.90;;;7.43;;
3433;SDS011;1730;41.932;25.548;2024-01-30T00:45:50;11.17;;;7.63;;
3433;SDS011;1730;41.932;25.548;2024-01-30T00:48:17;8.23;;;6.07;;
3433;SDS011;1730;41.932;25.548;2024-01-30T00:50:43;8.10;;;6.60;;
3433;SDS011;1730;41.932;25.548;2024-01-30T00:53:09;8.67;;;7.57;;
3433;SDS011;1730;41.932;25.548;2024-01-30T00:55:35;7.97;;;6.70;;
3433;SDS011;1730;41.932;25.548;2024-01-30T00:58:01;8.03;;;6.23;;
3433;SDS011;1730;41.932;25.548;2024-01-30T01:00:26;7.80;;;6.53;;
3433;SDS011;1730;41.932;25.548;2024-01-30T01:02:56;6.90;;;5.93;;
3433;SDS011;1730;41.932;25.548;2024-01-30T01:05:21;7.60;;;6.03;;
3433;SDS011;1730;41.932;25.548;2024-01-30T01:07:47;7.13;;;5.60;;
3433;SDS011;1730;41.932;25.548;2024-01-30T01:10:13;10.70;;;6.07;;
3433;SDS011;1730;41.932;25.548;2024-01-30T01:12:41;5.97;;;5.43;;
3433;SDS011;1730;41.932;25.548;2024-01-30T01:15:09;6.10;;;5.30;;
3433;SDS011;1730;41.932;25.548;2024-01-30T01:17:38;5.90;;;5.27;;
3433;SDS011;1730;41.932;25.548;2024-01-30T01:20:04;6.50;;;5.70;;
3433;SDS011;1730;41.932;25.548;2024-01-30T01:22:31;7.80;;;6.23;;
3433;SDS011;1730;41.932;25.548;2024-01-30T01:24:57;8.07;;;6.57;;
3433;SDS011;1730;41.932;25.548;2024-01-30T01:27:25;7.43;;;5.70;;
3433;SDS011;1730;41.932;25.548;2024-01-30T01:29:51;7.43;;;5.93;;
3433;SDS011;1730;41.932;25.548;2024-01-30T01:32:17;8.20;;;6.27;;
3433;SDS011;1730;41.932;25.548;2024-01-30T01:34:43;5.23;;;4.73;;
3433;SDS011;1730;41.932;25.548;2024-01-30T01:37:09;5.87;;;5.33;;
3433;SDS011;1730;41.932;25.548;2024-01-30T01:39:34;5.70;;;4.97;;
3433;SDS011;1730;41.932;25.548;2024-01-30T01:42:00;5.70;;;4.90;;
3433;SDS011;1730;41.932;25.548;2024-01-30T01:44:27;5.67;;;5.03;;
3433;SDS011;1730;41.932;25.548;2024-01-30T01:46:59;6.27;;;5.40;;
3433;SDS011;1730;41.932;25.548;2024-01-30T01:49:25;5.97;;;5.20;;
3433;SDS011;1730;41.932;25.548;2024-01-30T01:51:53;5.30;;;4.67;;
3433;SDS011;1730;41.932;25.548;2024-01-30T01:54:21;5.40;;;4.90;;
3433;SDS011;1730;41.932;25.548;2024-01-30T01:56:49;5.30;;;4.80;;
3433;SDS011;1730;41.932;25.548;2024-01-30T01:59:16;7.33;;;5.80;;
3433;SDS011;1730;41.932;25.548;2024-01-30T02:01:43;6.77;;;5.57;;
3433;SDS011;1730;41.932;25.548;2024-01-30T02:04:10;6.20;;;4.93;;
3433;SDS011;1730;41.932;25.548;2024-01-30T02:06:36;6.23;;;5.17;;
3433;SDS011;1730;41.932;25.548;2024-01-30T02:09:03;6.33;;;5.20;;
3433;SDS011;1730;41.932;25.548;2024-01-30T02:11:29;7.60;;;5.63;;
3433;SDS011;1730;41.932;25.548;2024-01-30T02:13:55;5.83;;;5.30;;
3433;SDS011;1730;41.932;25.548;2024-01-30T02:16:21;5.43;;;4.90;;
3433;SDS011;1730;41.932;25.548;2024-01-30T02:18:47;4.93;;;4.33;;
3433;SDS011;1730;41.932;25.548;2024-01-30T02:21:16;5.10;;;4.60;;
3433;SDS011;1730;41.932;25.548;2024-01-30T02:23:43;5.20;;;4.70;;
3433;SDS011;1730;41.932;25.548;2024-01-30T02:26:10;5.33;;;4.90;;
3433;SDS011;1730;41.932;25.548;2024-01-30T02:28:37;4.83;;;4.43;;
3433;SDS011;1730;41.932;25.548;2024-01-30T02:31:03;5.60;;;5.10;;
3433;SDS011;1730;41.932;25.548;2024-01-30T02:33:29;4.37;;;3.93;;
3433;SDS011;1730;41.932;25.548;2024-01-30T02:35:54;5.33;;;4.83;;
3433;SDS011;1730;41.932;25.548;2024-01-30T02:38:20;7.37;;;5.27;;
3433;SDS011;1730;41.932;25.548;2024-01-30T02:40:46;5.03;;;4.60;;
3433;SDS011;1730;41.932;25.548;2024-01-30T02:43:11;4.97;;;4.57;;
3433;SDS011;1730;41.932;25.548;2024-01-30T02:45:37;7.60;;;5.43;;
3433;SDS011;1730;41.932;25.548;2024-01-30T02:48:03;8.80;;;5.50;;
3433;SDS011;1730;41.932;25.548;2024-01-30T02:50:28;7.57;;;5.07;;
3433;SDS011;1730;41.932;25.548;2024-01-30T02:52:54;5.83;;;5.30;;
3433;SDS011;1730;41.932;25.548;2024-01-30T02:55:19;5.33;;;4.60;;
3433;SDS011;1730;41.932;25.548;2024-01-30T02:57:45;7.37;;;5.50;;
3433;SDS011;1730;41.932;25.548;2024-01-30T03:00:11;7.83;;;5.37;;
3433;SDS011;1730;41.932;25.548;2024-01-30T03:02:37;6.43;;;5.33;;
3433;SDS011;1730;41.932;25.548;2024-01-30T03:05:03;7.80;;;5.17;;
3433;SDS011;1730;41.932;25.548;2024-01-30T03:07:29;8.00;;;5.83;;
3433;SDS011;1730;41.932;25.548;2024-01-30T03:09:55;8.30;;;6.30;;
3433;SDS011;1730;41.932;25.548;2024-01-30T03:12:21;6.10;;;5.53;;
3433;SDS011;1730;41.932;25.548;2024-01-30T03:14:47;6.20;;;5.40;;
3433;SDS011;1730;41.932;25.548;2024-01-30T03:17:13;6.80;;;5.23;;
3433;SDS011;1730;41.932;25.548;2024-01-30T03:19:39;7.23;;;5.27;;
3433;SDS011;1730;41.932;25.548;2024-01-30T03:22:04;7.00;;;5.27;;
3433;SDS011;1730;41.932;25.548;2024-01-30T03:24:30;7.20;;;5.60;;
3433;SDS011;1730;41.932;25.548;2024-01-30T03:26:56;6.93;;;6.00;;
3433;SDS011;1730;41.932;25.548;2024-01-30T03:29:21;6.43;;;4.93;;
3433;SDS011;1730;41.932;25.548;2024-01-30T03:31:48;5.43;;;4.90;;
3433;SDS011;1730;41.932;25.548;2024-01-30T03:34:15;4.90;;;4.50;;
3433;SDS011;1730;41.932;25.548;2024-01-30T03:36:41;5.47;;;5.07;;
3433;SDS011;1730;41.932;25.548;2024-01-30T03:39:07;6.07;;;5.50;;
3433;SDS011;1730;41.932;25.548;2024-01-30T03:41:33;7.93;;;6.20;;
3433;SDS011;1730;41.932;25.548;2024-01-30T03:43:58;8.07;;;6.47;;
3433;SDS011;1730;41.932;25.548;2024-01-30T03:46:24;9.73;;;5.97;;
3433;SDS011;1730;41.932;25.548;2024-01-30T03:48:50;11.47;;;7.40;;
3433;SDS011;1730;41.932;25.548;2024-01-30T03:51:16;8.77;;;7.07;;
3433;SDS011;1730;41.932;25.548;2024-01-30T03:53:42;12.97;;;9.20;;
3433;SDS011;1730;41.932;25.548;2024-01-30T03:56:08;8.13;;;5.77;;
3433;SDS011;1730;41.932;25.548;2024-01-30T03:58:34;7.17;;;6.33;;
3433;SDS011;1730;41.932;25.548;2024-01-30T04:01:01;8.30;;;6.63;;
3433;SDS011;1730;41.932;25.548;2024-01-30T04:03:27;7.70;;;6.60;;
3433;SDS011;1730;41.932;25.548;2024-01-30T04:05:54;8.70;;;5.97;;
3433;SDS011;1730;41.932;25.548;2024-01-30T04:08:19;6.33;;;5.50;;
3433;SDS011;1730;41.932;25.548;2024-01-30T04:10:46;5.80;;;4.97;;
3433;SDS011;1730;41.932;25.548;2024-01-30T04:13:12;7.37;;;5.40;;
3433;SDS011;1730;41.932;25.548;2024-01-30T04:15:38;7.53;;;5.37;;
3433;SDS011;1730;41.932;25.548;2024-01-30T04:18:04;9.20;;;6.93;;
3433;SDS011;1730;41.932;25.548;2024-01-30T04:20:30;6.10;;;5.50;;
3433;SDS011;1730;41.932;25.548;2024-01-30T04:22:56;13.97;;;6.80;;
3433;SDS011;1730;41.932;25.548;2024-01-30T04:25:22;8.07;;;6.80;;
3433;SDS011;1730;41.932;25.548;2024-01-30T04:27:47;10.57;;;5.70;;
3433;SDS011;1730;41.932;25.548;2024-01-30T04:30:13;8.00;;;5.90;;
3433;SDS011;1730;41.932;25.548;2024-01-30T04:32:40;5.80;;;5.30;;
3433;SDS011;1730;41.932;25.548;2024-01-30T04:35:06;8.80;;;5.77;;
3433;SDS011;1730;41.932;25.548;2024-01-30T04:37:32;6.63;;;5.67;;
3433;SDS011;1730;41.932;25.548;2024-01-30T04:39:57;8.03;;;6.07;;
3433;SDS011;1730;41.932;25.548;2024-01-30T04:42:23;8.90;;;6.03;;
3433;SDS011;1730;41.932;25.548;2024-01-30T04:44:49;7.07;;;6.10;;
3433;SDS011;1730;41.932;25.548;2024-01-30T04:47:15;10.00;;;6.27;;
3433;SDS011;1730;41.932;25.548;2024-01-30T04:49:41;6.47;;;5.83;;
3433;SDS011;1730;41.932;25.548;2024-01-30T04:52:07;8.97;;;6.67;;
3433;SDS011;1730;41.932;25.548;2024-01-30T04:54:34;6.30;;;5.70;;
3433;SDS011;1730;41.932;25.548;2024-01-30T04:57:05;6.53;;;5.93;;
3433;SDS011;1730;41.932;25.548;2024-01-30T04:59:35;6.80;;;6.07;;
3433;SDS011;1730;41.932;25.548;2024-01-30T05:02:01;7.03;;;5.67;;
3433;SDS011;1730;41.932;25.548;2024-01-30T05:04:27;8.67;;;6.70;;
3433;SDS011;1730;41.932;25.548;2024-01-30T05:06:53;9.33;;;7.00;;
3433;SDS011;1730;41.932;25.548;2024-01-30T05:09:21;8.87;;;7.03;;
3433;SDS011;1730;41.932;25.548;2024-01-30T05:11:47;12.47;;;7.43;;
3433;SDS011;1730;41.932;25.548;2024-01-30T05:14:12;15.93;;;9.63;;
3433;SDS011;1730;41.932;25.548;2024-01-30T05:16:40;19.73;;;10.70;;
3433;SDS011;1730;41.932;25.548;2024-01-30T05:19:06;15.00;;;8.70;;
3433;SDS011;1730;41.932;25.548;2024-01-30T05:21:32;18.13;;;8.93;;
3433;SDS011;1730;41.932;25.548;2024-01-30T05:23:57;17.73;;;10.13;;
3433;SDS011;1730;41.932;25.548;2024-01-30T05:26:23;22.73;;;11.60;;
3433;SDS011;1730;41.932;25.548;2024-01-30T05:28:49;28.70;;;11.83;;
3433;SDS011;1730;41.932;25.548;2024-01-30T05:31:14;19.93;;;11.20;;
3433;SDS011;1730;41.932;25.548;2024-01-30T05:33:40;16.63;;;10.13;;
3433;SDS011;1730;41.932;25.548;2024-01-30T05:36:06;24.57;;;11.80;;
3433;SDS011;1730;41.932;25.548;2024-01-30T05:38:31;21.17;;;13.10;;
3433;SDS011;1730;41.932;25.548;2024-01-30T05:40:57;20.60;;;12.47;;
3433;SDS011;1730;41.932;25.548;2024-01-30T05:43:23;24.70;;;11.67;;
3433;SDS011;1730;41.932;25.548;2024-01-30T05:45:49;21.27;;;11.67;;
3433;SDS011;1730;41.932;25.548;2024-01-30T05:48:16;23.50;;;11.43;;
3433;SDS011;1730;41.932;25.548;2024-01-30T05:50:41;19.13;;;11.80;;
3433;SDS011;1730;41.932;25.548;2024-01-30T05:53:10;11.10;;;7.50;;
3433;SDS011;1730;41.932;25.548;2024-01-30T05:55:37;13.40;;;9.77;;
3433;SDS011;1730;41.932;25.548;2024-01-30T05:58:03;18.27;;;8.47;;
3433;SDS011;1730;41.932;25.548;2024-01-30T06:00:29;10.00;;;6.83;;
3433;SDS011;1730;41.932;25.548;2024-01-30T06:02:55;13.27;;;8.17;;
3433;SDS011;1730;41.932;25.548;2024-01-30T06:05:21;9.70;;;7.60;;
3433;SDS011;1730;41.932;25.548;2024-01-30T06:07:46;9.90;;;7.00;;
3433;SDS011;1730;41.932;25.548;2024-01-30T06:10:12;10.83;;;8.03;;
3433;SDS011;1730;41.932;25.548;2024-01-30T06:12:39;7.17;;;6.00;;
3433;SDS011;1730;41.932;25.548;2024-01-30T06:15:05;13.60;;;7.03;;
3433;SDS011;1730;41.932;25.548;2024-01-30T06:17:31;10.27;;;7.40;;
3433;SDS011;1730;41.932;25.548;2024-01-30T06:19:57;12.80;;;8.43;;
3433;SDS011;1730;41.932;25.548;2024-01-30T06:22:23;8.70;;;7.10;;
3433;SDS011;1730;41.932;25.548;2024-01-30T06:24:50;10.07;;;7.00;;
3433;SDS011;1730;41.932;25.548;2024-01-30T06:27:16;11.67;;;6.63;;
3433;SDS011;1730;41.932;25.548;2024-01-30T06:29:43;12.87;;;8.33;;
3433;SDS011;1730;41.932;25.548;2024-01-30T06:32:08;10.10;;;8.00;;
3433;SDS011;1730;41.932;25.548;2024-01-30T06:34:35;12.73;;;8.33;;
3433;SDS011;1730;41.932;25.548;2024-01-30T06:37:41;18.23;;;10.00;;
3433;SDS011;1730;41.932;25.548;2024-01-30T06:40:07;18.07;;;10.87;;
3433;SDS011;1730;41.932;25.548;2024-01-30T06:42:35;12.63;;;8.80;;
3433;SDS011;1730;41.932;25.548;2024-01-30T06:45:02;14.37;;;10.20;;
3433;SDS011;1730;41.932;25.548;2024-01-30T06:47:27;16.50;;;11.03;;
3433;SDS011;1730;41.932;25.548;2024-01-30T06:49:54;12.60;;;8.27;;
3433;SDS011;1730;41.932;25.548;2024-01-30T06:52:23;12.93;;;8.10;;
3433;SDS011;1730;41.932;25.548;2024-01-30T06:54:54;19.10;;;10.53;;
3433;SDS011;1730;41.932;25.548;2024-01-30T06:57:23;15.80;;;8.73;;
3433;SDS011;1730;41.932;25.548;2024-01-30T07:02:44;31.33;;;12.03;;
3433;SDS011;1730;41.932;25.548;2024-01-30T07:05:23;15.07;;;8.60;;
3433;SDS011;1730;41.932;25.548;2024-01-30T07:07:49;16.70;;;10.27;;
3433;SDS011;1730;41.932;25.548;2024-01-30T07:10:14;14.00;;;9.00;;
3433;SDS011;1730;41.932;25.548;2024-01-30T07:12:40;19.17;;;11.20;;
3433;SDS011;1730;41.932;25.548;2024-01-30T07:15:06;19.10;;;10.80;;
3433;SDS011;1730;41.932;25.548;2024-01-30T07:17:35;20.63;;;11.77;;
3433;SDS011;1730;41.932;25.548;2024-01-30T07:20:05;17.80;;;9.70;;
3433;SDS011;1730;41.932;25.548;2024-01-30T07:22:46;15.13;;;9.97;;
3433;SDS011;1730;41.932;25.548;2024-01-30T07:25:12;14.00;;;8.77;;
3433;SDS011;1730;41.932;25.548;2024-01-30T07:27:38;12.40;;;8.90;;
3433;SDS011;1730;41.932;25.548;2024-01-30T07:30:03;15.57;;;9.97;;
3433;SDS011;1730;41.932;25.548;2024-01-30T07:32:30;13.60;;;8.50;;
3433;SDS011;1730;41.932;25.548;2024-01-30T07:34:55;17.10;;;9.97;;
3433;SDS011;1730;41.932;25.548;2024-01-30T07:37:21;16.03;;;10.10;;
3433;SDS011;1730;41.932;25.548;2024-01-30T07:39:47;13.20;;;9.17;;
3433;SDS011;1730;41.932;25.548;2024-01-30T07:42:12;15.03;;;9.10;;
3433;SDS011;1730;41.932;25.548;2024-01-30T07:44:38;15.77;;;9.47;;
3433;SDS011;1730;41.932;25.548;2024-01-30T07:47:04;16.73;;;8.70;;
3433;SDS011;1730;41.932;25.548;2024-01-30T07:49:31;10.80;;;8.70;;
3433;SDS011;1730;41.932;25.548;2024-01-30T07:51:57;12.30;;;8.40;;
3433;SDS011;1730;41.932;25.548;2024-01-30T07:54:24;14.40;;;9.53;;
3433;SDS011;1730;41.932;25.548;2024-01-30T07:56:51;18.23;;;11.10;;
3433;SDS011;1730;41.932;25.548;2024-01-30T07:59:17;11.30;;;7.50;;
3433;SDS011;1730;41.932;25.548;2024-01-30T08:01:43;16.80;;;10.00;;
3433;SDS011;1730;41.932;25.548;2024-01-30T08:04:09;18.13;;;10.30;;
3433;SDS011;1730;41.932;25.548;2024-01-30T08:06:36;12.57;;;9.00;;
3433;SDS011;1730;41.932;25.548;2024-01-30T08:09:02;16.80;;;10.07;;
3433;SDS011;1730;41.932;25.548;2024-01-30T08:11:28;21.00;;;12.50;;
3433;SDS011;1730;41.932;25.548;2024-01-30T08:13:55;13.00;;;7.87;;
3433;SDS011;1730;41.932;25.548;2024-01-30T08:16:21;14.07;;;9.53;;
3433;SDS011;1730;41.932;25.548;2024-01-30T08:18:47;13.60;;;8.80;;
3433;SDS011;1730;41.932;25.548;2024-01-30T08:21:13;18.70;;;11.40;;
3433;SDS011;1730;41.932;25.548;2024-01-30T08:23:39;13.67;;;9.83;;
3433;SDS011;1730;41.932;25.548;2024-01-30T08:29:04;17.03;;;11.57;;
3433;SDS011;1730;41.932;25.548;2024-01-30T08:31:30;15.40;;;10.90;;
3433;SDS011;1730;41.932;25.548;2024-01-30T08:33:56;15.80;;;11.13;;
3433;SDS011;1730;41.932;25.548;2024-01-30T08:36:22;13.93;;;10.40;;
3433;SDS011;1730;41.932;25.548;2024-01-30T08:38:48;16.77;;;11.03;;
3433;SDS011;1730;41.932;25.548;2024-01-30T08:41:14;18.10;;;11.33;;
3433;SDS011;1730;41.932;25.548;2024-01-30T08:43:40;15.50;;;11.23;;
3433;SDS011;1730;41.932;25.548;2024-01-30T08:46:06;13.30;;;10.60;;
3433;SDS011;1730;41.932;25.548;2024-01-30T08:53:57;12.07;;;9.50;;
3433;SDS011;1730;41.932;25.548;2024-01-30T09:56:47;9.40;;;7.57;;
3433;SDS011;1730;41.932;25.548;2024-01-30T09:59:13;7.67;;;6.80;;
3433;SDS011;1730;41.932;25.548;2024-01-30T10:01:39;9.83;;;7.33;;
3433;SDS011;1730;41.932;25.548;2024-01-30T10:04:06;11.30;;;8.87;;
3433;SDS011;1730;41.932;25.548;2024-01-30T10:06:34;11.07;;;7.63;;
3433;SDS011;1730;41.932;25.548;2024-01-30T10:09:03;9.43;;;7.37;;
3433;SDS011;1730;41.932;25.548;2024-01-30T10:11:32;7.90;;;6.80;;
3433;SDS011;1730;41.932;25.548;2024-01-30T10:13:57;12.13;;;6.57;;
3433;SDS011;1730;41.932;25.548;2024-01-30T10:16:23;6.60;;;5.90;;
3433;SDS011;1730;41.932;25.548;2024-01-30T10:18:49;8.73;;;6.27;;
3433;SDS011;1730;41.932;25.548;2024-01-30T10:21:16;11.40;;;7.43;;
3433;SDS011;1730;41.932;25.548;2024-01-30T10:23:45;7.50;;;6.67;;
3433;SDS011;1730;41.932;25.548;2024-01-30T10:26:11;11.73;;;7.57;;
3433;SDS011;1730;41.932;25.548;2024-01-30T10:28:37;7.70;;;6.57;;
3433;SDS011;1730;41.932;25.548;2024-01-30T10:31:03;8.77;;;6.97;;
3433;SDS011;1730;41.932;25.548;2024-01-30T10:33:41;12.07;;;7.00;;
3433;SDS011;1730;41.932;25.548;2024-01-30T10:36:10;9.37;;;5.13;;
3433;SDS011;1730;41.932;25.548;2024-01-30T10:38:40;5.47;;;4.97;;
3433;SDS011;1730;41.932;25.548;2024-01-30T10:41:12;9.83;;;6.90;;
3433;SDS011;1730;41.932;25.548;2024-01-30T10:43:50;6.80;;;5.10;;
3433;SDS011;1730;41.932;25.548;2024-01-30T10:46:34;6.90;;;5.57;;
3433;SDS011;1730;41.932;25.548;2024-01-30T11:10:24;5.90;;;5.40;;
3433;SDS011;1730;41.932;25.548;2024-01-30T11:12:54;6.00;;;5.03;;
3433;SDS011;1730;41.932;25.548;2024-01-30T11:37:11;5.87;;;5.27;;
3433;SDS011;1730;41.932;25.548;2024-01-30T11:39:41;6.60;;;5.53;;
3433;SDS011;1730;41.932;25.548;2024-01-30T11:42:10;8.13;;;4.90;;
3433;SDS011;1730;41.932;25.548;2024-01-30T11:44:36;4.60;;;3.90;;
3433;SDS011;1730;41.932;25.548;2024-01-30T11:47:02;8.10;;;6.30;;
3433;SDS011;1730;41.932;25.548;2024-01-30T11:49:29;9.27;;;5.00;;
3433;SDS011;1730;41.932;25.548;2024-01-30T11:51:55;6.70;;;5.07;;
3433;SDS011;1730;41.932;25.548;2024-01-30T11:54:22;8.57;;;6.37;;
3433;SDS011;1730;41.932;25.548;2024-01-30T11:56:48;7.97;;;5.60;;
3433;SDS011;1730;41.932;25.548;2024-01-30T11:59:17;7.53;;;6.27;;
3433;SDS011;1730;41.932;25.548;2024-01-30T12:01:43;8.47;;;6.40;;
3433;SDS011;1730;41.932;25.548;2024-01-30T12:04:09;7.57;;;6.07;;
3433;SDS011;1730;41.932;25.548;2024-01-30T12:06:35;5.93;;;5.30;;
3433;SDS011;1730;41.932;25.548;2024-01-30T12:09:08;7.33;;;4.73;;
3433;SDS011;1730;41.932;25.548;2024-01-30T12:11:46;9.47;;;6.70;;
3433;SDS011;1730;41.932;25.548;2024-01-30T12:17:31;6.80;;;5.50;;
3433;SDS011;1730;41.932;25.548;2024-01-30T12:22:32;6.80;;;5.23;;
3433;SDS011;1730;41.932;25.548;2024-01-30T12:25:04;7.20;;;5.83;;
3433;SDS011;1730;41.932;25.548;2024-01-30T12:27:33;6.10;;;5.50;;
3433;SDS011;1730;41.932;25.548;2024-01-30T12:30:13;6.83;;;4.70;;
3433;SDS011;1730;41.932;25.548;2024-01-30T12:32:46;5.40;;;4.57;;
3433;SDS011;1730;41.932;25.548;2024-01-30T12:37:57;4.33;;;3.50;;
3433;SDS011;1730;41.932;25.548;2024-01-30T12:40:22;5.93;;;4.50;;
3433;SDS011;1730;41.932;25.548;2024-01-30T12:42:49;4.30;;;3.90;;
3433;SDS011;1730;41.932;25.548;2024-01-30T12:45:15;5.30;;;4.63;;
3433;SDS011;1730;41.932;25.548;2024-01-30T12:47:41;4.90;;;4.50;;
3433;SDS011;1730;41.932;25.548;2024-01-30T12:52:52;4.70;;;4.30;;
3433;SDS011;1730;41.932;25.548;2024-01-30T12:55:18;5.07;;;4.40;;
3433;SDS011;1730;41.932;25.548;2024-01-30T12:57:47;5.10;;;4.70;;
3433;SDS011;1730;41.932;25.548;2024-01-30T13:00:12;5.03;;;4.57;;
3433;SDS011;1730;41.932;25.548;2024-01-30T13:02:42;5.37;;;4.90;;
3433;SDS011;1730;41.932;25.548;2024-01-30T13:05:11;5.40;;;4.33;;
3433;SDS011;1730;41.932;25.548;2024-01-30T13:07:37;3.97;;;3.67;;
3433;SDS011;1730;41.932;25.548;2024-01-30T13:10:04;5.17;;;4.40;;
3433;SDS011;1730;41.932;25.548;2024-01-30T13:12:37;4.93;;;4.43;;
3433;SDS011;1730;41.932;25.548;2024-01-30T13:15:05;11.07;;;7.43;;
3433;SDS011;1730;41.932;25.548;2024-01-30T13:17:32;4.80;;;4.37;;
3433;SDS011;1730;41.932;25.548;2024-01-30T13:20:04;9.40;;;5.00;;
3433;SDS011;1730;41.932;25.548;2024-01-30T13:22:30;9.87;;;5.30;;
3433;SDS011;1730;41.932;25.548;2024-01-30T13:24:56;5.60;;;5.00;;
3433;SDS011;1730;41.932;25.548;2024-01-30T13:27:22;9.60;;;5.77;;
3433;SDS011;1730;41.932;25.548;2024-01-30T13:29:48;5.03;;;4.60;;
3433;SDS011;1730;41.932;25.548;2024-01-30T13:40:26;5.20;;;4.70;;
3433;SDS011;1730;41.932;25.548;2024-01-30T13:42:53;9.70;;;4.80;;
3433;SDS011;1730;41.932;25.548;2024-01-30T13:47:57;6.10;;;5.43;;
3433;SDS011;1730;41.932;25.548;2024-01-30T13:50:25;4.20;;;3.90;;
3433;SDS011;1730;41.932;25.548;2024-01-30T13:52:51;5.83;;;4.77;;
3433;SDS011;1730;41.932;25.548;2024-01-30T13:55:18;9.87;;;7.23;;
3433;SDS011;1730;41.932;25.548;2024-01-30T13:57:43;17.63;;;10.30;;
3433;SDS011;1730;41.932;25.548;2024-01-30T14:00:13;9.20;;;6.37;;
3433;SDS011;1730;41.932;25.548;2024-01-30T14:02:41;6.17;;;5.57;;
3433;SDS011;1730;41.932;25.548;2024-01-30T14:05:09;7.73;;;4.70;;
3433;SDS011;1730;41.932;25.548;2024-01-30T14:10:30;12.17;;;8.17;;
3433;SDS011;1730;41.932;25.548;2024-01-30T14:12:56;6.30;;;5.70;;
3433;SDS011;1730;41.932;25.548;2024-01-30T14:15:26;5.90;;;5.30;;
3433;SDS011;1730;41.932;25.548;2024-01-30T14:17:52;10.13;;;5.80;;
3433;SDS011;1730;41.932;25.548;2024-01-30T14:20:18;8.50;;;5.40;;
3433;SDS011;1730;41.932;25.548;2024-01-30T14:22:44;14.73;;;7.90;;
3433;SDS011;1730;41.932;25.548;2024-01-30T14:25:11;12.40;;;7.50;;
3433;SDS011;1730;41.932;25.548;2024-01-30T14:27:37;15.50;;;8.40;;
3433;SDS011;1730;41.932;25.548;2024-01-30T14:30:03;8.57;;;6.53;;
3433;SDS011;1730;41.932;25.548;2024-01-30T14:32:28;6.20;;;5.50;;
3433;SDS011;1730;41.932;25.548;2024-01-30T14:34:54;8.67;;;5.33;;
3433;SDS011;1730;41.932;25.548;2024-01-30T14:37:20;9.50;;;6.40;;
3433;SDS011;1730;41.932;25.548;2024-01-30T14:39:47;11.40;;;8.17;;
3433;SDS011;1730;41.932;25.548;2024-01-30T14:42:15;6.00;;;5.13;;
3433;SDS011;1730;41.932;25.548;2024-01-30T14:44:44;8.37;;;6.60;;
3433;SDS011;1730;41.932;25.548;2024-01-30T14:47:15;5.50;;;5.00;;
3433;SDS011;1730;41.932;25.548;2024-01-30T14:49:41;13.20;;;6.37;;
3433;SDS011;1730;41.932;25.548;2024-01-30T14:52:07;6.03;;;5.43;;
3433;SDS011;1730;41.932;25.548;2024-01-30T14:54:38;5.10;;;4.70;;
3433;SDS011;1730;41.932;25.548;2024-01-30T14:57:30;8.53;;;6.70;;
3433;SDS011;1730;41.932;25.548;2024-01-30T14:59:55;7.20;;;5.90;;
3433;SDS011;1730;41.932;25.548;2024-01-30T15:02:21;7.47;;;6.50;;
3433;SDS011;1730;41.932;25.548;2024-01-30T15:04:46;6.93;;;5.53;;
3433;SDS011;1730;41.932;25.548;2024-01-30T15:07:12;7.10;;;5.53;;
3433;SDS011;1730;41.932;25.548;2024-01-30T15:09:40;6.80;;;6.20;;
3433;SDS011;1730;41.932;25.548;2024-01-30T15:12:10;8.87;;;6.40;;
3433;SDS011;1730;41.932;25.548;2024-01-30T15:14:37;9.20;;;7.13;;
3433;SDS011;1730;41.932;25.548;2024-01-30T15:19:38;12.20;;;7.03;;
3433;SDS011;1730;41.932;25.548;2024-01-30T15:22:05;6.30;;;5.70;;
3433;SDS011;1730;41.932;25.548;2024-01-30T15:24:31;8.60;;;6.70;;
3433;SDS011;1730;41.932;25.548;2024-01-30T15:26:57;8.93;;;6.70;;
3433;SDS011;1730;41.932;25.548;2024-01-30T15:29:25;10.67;;;6.80;;
3433;SDS011;1730;41.932;25.548;2024-01-30T15:31:52;7.50;;;6.43;;
3433;SDS011;1730;41.932;25.548;2024-01-30T15:34:17;8.50;;;6.70;;
3433;SDS011;1730;41.932;25.548;2024-01-30T15:36:45;9.20;;;7.40;;
3433;SDS011;1730;41.932;25.548;2024-01-30T15:39:36;8.37;;;5.80;;
3433;SDS011;1730;41.932;25.548;2024-01-30T15:42:06;9.27;;;7.10;;
3433;SDS011;1730;41.932;25.548;2024-01-30T15:44:32;10.80;;;6.33;;
3433;SDS011;1730;41.932;25.548;2024-01-30T15:46:57;9.40;;;5.70;;
3433;SDS011;1730;41.932;25.548;2024-01-30T15:49:24;8.07;;;6.17;;
3433;SDS011;1730;41.932;25.548;2024-01-30T15:51:51;7.03;;;5.60;;
3433;SDS011;1730;41.932;25.548;2024-01-30T15:54:23;8.77;;;6.57;;
3433;SDS011;1730;41.932;25.548;2024-01-30T15:56:49;9.17;;;6.57;;
3433;SDS011;1730;41.932;25.548;2024-01-30T16:01:54;6.47;;;5.93;;
3433;SDS011;1730;41.932;25.548;2024-01-30T16:04:19;10.03;;;7.27;;
3433;SDS011;1730;41.932;25.548;2024-01-30T16:06:46;8.60;;;7.00;;
3433;SDS011;1730;41.932;25.548;2024-01-30T16:14:42;10.53;;;8.13;;
3433;SDS011;1730;41.932;25.548;2024-01-30T16:17:17;7.90;;;5.93;;
3433;SDS011;1730;41.932;25.548;2024-01-30T16:19:43;7.70;;;6.37;;
3433;SDS011;1730;41.932;25.548;2024-01-30T16:22:09;11.73;;;8.73;;
3433;SDS011;1730;41.932;25.548;2024-01-30T16:24:36;10.60;;;7.77;;
3433;SDS011;1730;41.932;25.548;2024-01-30T16:27:02;14.40;;;8.63;;
3433;SDS011;1730;41.932;25.548;2024-01-30T16:29:28;12.17;;;8.63;;
3433;SDS011;1730;41.932;25.548;2024-01-30T16:31:54;8.50;;;6.70;;
3433;SDS011;1730;41.932;25.548;2024-01-30T16:34:21;13.57;;;8.90;;
3433;SDS011;1730;41.932;25.548;2024-01-30T16:36:47;14.53;;;8.50;;
3433;SDS011;1730;41.932;25.548;2024-01-30T16:39:12;9.53;;;7.13;;
3433;SDS011;1730;41.932;25.548;2024-01-30T16:41:39;12.07;;;10.27;;
3433;SDS011;1730;41.932;25.548;2024-01-30T16:44:06;12.00;;;8.50;;
3433;SDS011;1730;41.932;25.548;2024-01-30T16:46:33;10.00;;;8.70;;
3433;SDS011;1730;41.932;25.548;2024-01-30T16:49:01;12.03;;;9.03;;
3433;SDS011;1730;41.932;25.548;2024-01-30T16:51:28;12.63;;;8.90;;
3433;SDS011;1730;41.932;25.548;2024-01-30T16:53:59;12.77;;;8.87;;
3433;SDS011;1730;41.932;25.548;2024-01-30T16:56:25;11.50;;;8.23;;
3433;SDS011;1730;41.932;25.548;2024-01-30T16:58:51;9.77;;;6.67;;
3433;SDS011;1730;41.932;25.548;2024-01-30T17:01:20;13.20;;;8.67;;
3433;SDS011;1730;41.932;25.548;2024-01-30T17:06:21;13.87;;;9.73;;
3433;SDS011;1730;41.932;25.548;2024-01-30T17:11:24;9.10;;;7.20;;
3433;SDS011;1730;41.932;25.548;2024-01-30T17:13:56;10.10;;;7.93;;
3433;SDS011;1730;41.932;25.548;2024-01-30T17:16:23;13.30;;;8.30;;
3433;SDS011;1730;41.932;25.548;2024-01-30T17:30:03;12.60;;;7.93;;
3433;SDS011;1730;41.932;25.548;2024-01-30T17:32:38;9.40;;;7.23;;
3433;SDS011;1730;41.932;25.548;2024-01-30T17:35:04;14.47;;;7.83;;
3433;SDS011;1730;41.932;25.548;2024-01-30T17:37:30;12.80;;;8.83;;
3433;SDS011;1730;41.932;25.548;2024-01-30T17:39:57;13.97;;;8.00;;
3433;SDS011;1730;41.932;25.548;2024-01-30T17:42:24;13.67;;;8.80;;